createdAt,value
2019-04-22T00:00:35.997Z,49.7795
2019-04-22T00:01:36.913Z,49.9596
2019-04-22T00:02:50.142Z,49.8955
2019-04-22T00:03:55.202Z,49.7017
2019-04-22T00:05:07.236Z,49.7978
2019-04-22T00:06:25.883Z,49.7704
2019-04-22T00:07:38.894Z,48.4306
2019-04-22T00:10:00.624Z,49.1386
2019-04-22T00:11:03.206Z,49.2042
2019-04-22T00:12:13.767Z,49.4133
2019-04-22T00:13:26.220Z,49.3034
2019-04-22T00:14:24.906Z,49.6193
2019-04-22T00:15:28.076Z,49.4957
2019-04-22T00:16:47.283Z,49.5613
2019-04-22T00:18:07.423Z,49.1630
2019-04-22T00:20:08.630Z,49.4453
2019-04-22T00:21:19.734Z,49.2805
2019-04-22T00:22:23.854Z,49.5979
2019-04-22T00:23:31.663Z,49.7353
2019-04-22T00:24:38.139Z,49.6803
2019-04-22T00:25:50.772Z,49.4102
2019-04-22T00:26:59.613Z,49.5705
2019-04-22T00:28:02.318Z,49.9214
2019-04-22T00:29:36.031Z,50.1732
2019-04-22T00:30:21.969Z,50.7546
2019-04-22T00:31:26.847Z,50.8522
2019-04-22T00:32:32.288Z,50.9926
2019-04-22T00:33:39.322Z,50.8247
2019-04-22T00:34:51.657Z,50.8110
2019-04-22T00:35:55.181Z,50.7973
2019-04-22T00:37:07.920Z,50.3670
2019-04-22T00:38:17.302Z,50.1640
2019-04-22T00:39:31.650Z,50.4204
2019-04-22T00:40:33.906Z,50.7103
2019-04-22T00:41:43.986Z,50.6767
2019-04-22T00:42:47.184Z,50.7240
2019-04-22T00:44:00.403Z,49.9947
2019-04-22T00:45:08.271Z,50.0496
2019-04-22T00:46:11.320Z,50.2052
2019-04-22T00:47:26.690Z,50.4204
2019-04-22T00:48:27.559Z,50.7408
2019-04-22T00:50:06.323Z,50.8888
2019-04-22T00:50:46.350Z,51.3329
2019-04-22T00:51:58.278Z,51.5892
2019-04-22T00:53:04.627Z,51.5465
2019-04-22T00:54:06.031Z,51.8868
2019-04-22T00:56:35.275Z,52.5780
2019-04-22T00:58:41.255Z,52.9839
2019-04-22T00:59:50.794Z,53.2372
2019-04-22T01:00:57.083Z,53.5470
2019-04-22T01:02:07.590Z,53.7942
2019-04-22T01:03:16.159Z,53.6202
2019-04-22T01:04:31.549Z,54.1344
2019-04-22T01:05:27.905Z,53.9864
2019-04-22T01:06:35.886Z,54.5998
2019-04-22T01:07:46.429Z,54.9111
2019-04-22T01:09:58.500Z,55.6664
2019-04-22T01:11:13.414Z,55.9548
2019-04-22T01:12:15.541Z,56.1852
2019-04-22T01:13:24.862Z,56.3851
2019-04-22T01:14:29.882Z,56.5774
2019-04-22T01:15:40.826Z,56.9497
2019-04-22T01:16:50.501Z,57.2183
2019-04-22T01:17:56.231Z,57.1633
2019-04-22T01:19:00.463Z,57.5113
2019-04-22T01:20:25.755Z,57.3144
2019-04-22T01:21:36.914Z,57.5113
2019-04-22T01:22:21.801Z,57.7600
2019-04-22T01:23:28.247Z,57.7951
2019-04-22T01:24:38.638Z,57.7737
2019-04-22T01:25:46.402Z,58.1216
2019-04-22T01:26:52.297Z,57.6944
2019-04-22T01:27:57.216Z,57.8470
2019-04-22T01:29:02.463Z,57.6822
2019-04-22T01:30:10.927Z,57.7539
2019-04-22T01:31:13.538Z,57.5982
2019-04-22T01:32:21.634Z,57.4197
2019-04-22T01:33:29.379Z,57.4670
2019-04-22T01:34:49.349Z,57.6761
2019-04-22T01:35:58.434Z,57.4762
2019-04-22T01:37:03.401Z,57.3373
2019-04-22T01:38:11.975Z,57.4838
2019-04-22T01:39:25.460Z,56.9665
2019-04-22T01:40:40.511Z,56.9268
2019-04-22T01:41:48.924Z,56.6476
2019-04-22T01:42:56.252Z,55.6893
2019-04-22T01:44:10.628Z,54.6517
2019-04-22T01:45:12.447Z,54.9569
2019-04-22T01:46:21.362Z,54.4488
2019-04-22T01:47:25.127Z,54.6273
2019-04-22T01:48:32.493Z,54.5556
2019-04-22T01:49:40.231Z,54.7784
2019-04-22T01:50:46.166Z,54.7921
2019-04-22T01:51:59.750Z,54.9157
2019-04-22T01:53:06.314Z,54.9477
2019-04-22T01:54:14.627Z,55.2605
2019-04-22T01:55:28.827Z,55.4253
2019-04-22T01:56:28.592Z,55.3567
2019-04-22T01:57:34.970Z,55.4284
2019-04-22T01:58:38.253Z,55.4971
2019-04-22T01:59:40.389Z,55.7549
2019-04-22T02:01:00.150Z,55.7488
2019-04-22T02:02:09.207Z,55.8831
2019-04-22T02:03:17.597Z,55.9915
2019-04-22T02:04:30.298Z,55.7504
2019-04-22T02:05:31.530Z,55.6939
2019-04-22T02:06:43.968Z,55.5337
2019-04-22T02:07:51.647Z,55.4482
2019-04-22T02:09:00.596Z,55.6435
2019-04-22T02:10:02.230Z,55.6176
2019-04-22T02:11:24.123Z,55.5261
2019-04-22T02:12:19.913Z,56.0204
2019-04-22T02:13:30.812Z,55.8495
2019-04-22T02:14:39.609Z,55.8373
2019-04-22T02:15:50.100Z,55.7366
2019-04-22T02:16:58.028Z,55.4879
2019-04-22T02:18:01.259Z,55.5261
2019-04-22T02:19:11.212Z,55.5383
2019-04-22T02:20:32.218Z,55.1919
2019-04-22T02:21:20.173Z,55.1904
2019-04-22T02:22:50.065Z,55.2193
2019-04-22T02:23:47.056Z,55.9152
2019-04-22T02:25:09.472Z,55.7717
2019-04-22T02:27:15.025Z,55.3933
2019-04-22T02:29:26.342Z,55.2453
2019-04-22T02:30:37.258Z,55.2514
2019-04-22T02:31:59.434Z,54.8058
2019-04-22T02:36:30.104Z,54.9889
2019-04-22T02:37:18.778Z,55.0393
2019-04-22T02:38:47.100Z,54.6822
2019-04-22T02:39:38.335Z,54.6838
2019-04-22T02:41:08.794Z,54.6929
2019-04-22T02:41:52.815Z,54.5281
2019-04-22T02:43:01.691Z,54.7158
2019-04-22T02:45:18.283Z,54.5098
2019-04-22T02:48:53.336Z,54.3938
2019-04-22T02:49:47.112Z,54.3816
2019-04-22T02:51:06.186Z,54.4488
2019-04-22T02:52:06.418Z,54.1512
2019-04-22T02:53:36.553Z,54.3801
2019-04-22T02:58:00.889Z,54.2336
2019-04-22T02:59:09.478Z,54.6151
2019-04-22T03:00:05.570Z,54.4549
2019-04-22T03:02:19.617Z,54.2977
2019-04-22T03:03:41.655Z,54.3297
2019-04-22T03:04:35.744Z,54.1894
2019-04-22T03:06:07.429Z,54.1009
2019-04-22T03:06:56.101Z,54.2885
2019-04-22T03:10:41.848Z,54.0932
2019-04-22T03:11:31.120Z,54.1161
2019-04-22T03:12:29.421Z,54.0139
2019-04-22T03:13:47.331Z,54.3206
2019-04-22T03:16:11.622Z,54.0093
2019-04-22T03:17:03.479Z,54.0108
2019-04-22T03:19:43.431Z,53.7957
2019-04-22T03:20:29.138Z,53.8308
2019-04-22T03:21:36.711Z,53.6126
2019-04-22T03:26:27.257Z,54.2611
2019-04-22T03:28:33.012Z,53.8232
2019-04-22T03:29:44.534Z,53.6522
2019-04-22T03:32:17.494Z,54.1741
2019-04-22T03:33:11.989Z,53.9376
2019-04-22T03:35:37.398Z,53.0312
2019-04-22T03:36:58.260Z,53.1533
2019-04-22T03:39:01.406Z,53.1777
2019-04-22T03:39:59.380Z,52.7703
2019-04-22T03:40:52.669Z,53.1121
2019-04-22T03:46:34.788Z,53.0083
2019-04-22T03:47:52.941Z,52.9656
2019-04-22T03:49:03.862Z,52.9030
2019-04-22T03:50:04.599Z,52.7367
2019-04-22T03:51:07.521Z,52.8145
2019-04-22T03:53:33.057Z,53.2189
2019-04-22T03:55:41.229Z,52.6101
2019-04-22T03:59:13.121Z,52.8069
2019-04-22T04:01:32.039Z,52.6741
2019-04-22T04:02:35.726Z,52.5353
2019-04-22T04:03:30.616Z,52.7703
2019-04-22T04:04:37.113Z,52.6177
2019-04-22T04:08:16.405Z,52.8573
2019-04-22T04:09:19.340Z,52.5093
2019-04-22T04:10:32.234Z,52.6146
2019-04-22T04:11:38.398Z,52.3445
2019-04-22T04:12:41.609Z,52.3613
2019-04-22T04:15:14.087Z,53.4249
2019-04-22T04:15:57.679Z,52.8435
2019-04-22T04:18:13.341Z,52.6055
2019-04-22T04:19:35.961Z,52.6818
2019-04-22T04:26:17.416Z,52.7962
2019-04-22T04:27:49.132Z,52.8618
2019-04-22T04:30:40.054Z,52.9290
2019-04-22T04:34:20.057Z,53.2921
2019-04-22T04:36:28.741Z,53.0709
2019-04-22T04:39:26.455Z,53.1029
2019-04-22T04:39:53.161Z,53.2921
2019-04-22T04:41:00.418Z,53.3822
2019-04-22T04:42:16.203Z,53.3318
2019-04-22T04:45:38.242Z,53.5805
2019-04-22T04:46:44.768Z,53.7575
2019-04-22T04:49:02.682Z,53.4966
2019-04-22T04:51:16.025Z,53.1762
2019-04-22T04:54:35.580Z,54.0826
2019-04-22T04:55:34.975Z,54.1115
2019-04-22T04:56:46.552Z,54.1024
2019-04-22T04:59:16.994Z,54.1466
2019-04-22T05:01:23.348Z,54.2077
2019-04-22T05:02:41.019Z,54.5632
2019-04-22T05:03:48.864Z,54.3206
2019-04-22T05:04:56.722Z,54.4121
2019-04-22T05:06:03.500Z,54.7478
2019-04-22T05:09:59.645Z,53.9651
2019-04-22T05:10:47.534Z,54.0230
2019-04-22T05:12:55.639Z,54.2153
2019-04-22T05:14:07.152Z,54.2840
2019-04-22T05:15:00.895Z,54.1939
2019-04-22T05:16:17.560Z,53.9727
2019-04-22T05:17:12.899Z,53.5149
2019-04-22T05:19:26.125Z,53.5714
2019-04-22T05:20:46.164Z,53.2921
2019-04-22T05:21:39.644Z,53.5241
2019-04-22T05:22:44.486Z,53.6248
2019-04-22T05:24:02.712Z,53.5027
2019-04-22T05:25:04.832Z,53.5470
2019-04-22T05:28:48.154Z,53.7453
2019-04-22T05:29:55.440Z,53.8415
2019-04-22T05:30:39.465Z,53.6767
2019-04-22T05:31:56.869Z,53.7346
2019-04-22T05:33:14.019Z,53.9284
2019-04-22T05:34:09.588Z,53.9193
2019-04-22T05:35:14.452Z,54.1329
2019-04-22T05:37:37.950Z,54.0505
2019-04-22T05:38:53.670Z,54.1146
2019-04-22T05:39:49.580Z,53.9269
2019-04-22T05:40:56.558Z,54.3572
2019-04-22T05:42:10.406Z,53.9055
2019-04-22T05:43:07.993Z,54.2931
2019-04-22T05:44:34.405Z,54.4259
2019-04-22T05:45:40.299Z,54.2443
2019-04-22T05:46:34.503Z,53.9193
2019-04-22T05:47:46.177Z,54.4305
2019-04-22T05:48:53.773Z,54.2763
2019-04-22T05:49:48.307Z,54.7616
2019-04-22T05:51:27.128Z,54.9538
2019-04-22T05:52:14.841Z,54.6151
2019-04-22T05:53:20.104Z,55.1537
2019-04-22T05:54:34.721Z,55.0210
2019-04-22T05:55:41.531Z,54.6288
2019-04-22T05:56:40.987Z,53.8354
2019-04-22T05:57:57.701Z,53.6477
2019-04-22T05:59:04.380Z,53.9559
2019-04-22T06:00:13.885Z,53.4386
2019-04-22T06:02:43.536Z,52.5994
2019-04-22T06:03:37.673Z,52.3354
2019-04-22T06:04:48.523Z,52.1019
2019-04-22T06:05:47.886Z,52.2759
2019-04-22T06:06:53.571Z,52.5582
2019-04-22T06:08:04.102Z,51.9860
2019-04-22T06:09:22.452Z,51.9234
2019-04-22T06:10:29.355Z,51.6564
2019-04-22T06:11:29.845Z,51.5236
2019-04-22T06:12:31.469Z,51.6976
2019-04-22T06:13:38.885Z,51.6075
2019-04-22T06:14:55.693Z,51.6014
2019-04-22T06:15:58.996Z,51.3588
2019-04-22T06:17:10.679Z,51.2917
2019-04-22T06:19:27.882Z,51.0704
2019-04-22T06:20:37.087Z,51.0613
2019-04-22T06:21:46.185Z,50.8507
2019-04-22T06:22:57.109Z,50.9071
2019-04-22T06:24:05.138Z,50.7881
2019-04-22T06:25:17.191Z,50.9148
2019-04-22T06:26:19.512Z,50.8476
2019-04-22T06:28:50.087Z,50.7912
2019-04-22T06:29:37.013Z,51.1864
2019-04-22T06:30:53.486Z,50.6676
2019-04-22T06:32:17.462Z,50.6081
2019-04-22T06:33:08.524Z,50.7607
2019-04-22T06:34:17.798Z,50.4845
2019-04-22T06:35:29.744Z,50.4753
2019-04-22T06:36:31.057Z,50.3441
2019-04-22T06:37:43.318Z,50.7652
2019-04-22T06:39:01.611Z,50.7744
2019-04-22T06:39:55.532Z,50.8751
2019-04-22T06:41:04.274Z,50.8782
2019-04-22T06:43:16.270Z,50.5318
2019-04-22T06:44:24.100Z,50.8934
2019-04-22T06:45:44.991Z,50.8705
2019-04-22T06:46:39.657Z,50.9758
2019-04-22T06:48:57.281Z,50.6035
2019-04-22T06:50:07.590Z,50.4845
2019-04-22T06:51:14.689Z,50.3899
2019-04-22T06:52:19.620Z,50.3029
2019-04-22T06:53:29.708Z,50.4707
2019-04-22T06:54:40.670Z,50.7088
2019-04-22T06:55:48.204Z,51.1772
2019-04-22T06:56:54.662Z,51.1818
2019-04-22T06:57:58.138Z,51.0811
2019-04-22T06:59:06.888Z,51.0567
2019-04-22T07:00:19.386Z,50.5135
2019-04-22T07:02:47.168Z,49.6666
2019-04-22T07:04:55.156Z,49.9367
2019-04-22T07:05:59.543Z,50.0771
2019-04-22T07:07:08.348Z,49.6254
2019-04-22T07:08:30.699Z,50.0221
2019-04-22T07:11:37.924Z,50.4524
2019-04-22T07:12:47.209Z,50.1640
2019-04-22T07:14:00.085Z,50.5211
2019-04-22T07:15:02.775Z,50.7424
2019-04-22T07:16:05.101Z,50.3349
2019-04-22T07:17:15.935Z,51.0430
2019-04-22T07:19:33.640Z,51.1406
2019-04-22T07:20:45.879Z,51.4641
2019-04-22T07:21:50.620Z,51.5297
2019-04-22T07:23:06.797Z,51.7250
2019-04-22T07:24:21.249Z,51.9097
2019-04-22T07:25:10.286Z,51.9417
2019-04-22T07:26:20.341Z,52.4041
2019-04-22T07:27:27.791Z,52.4681
2019-04-22T07:28:34.407Z,52.5307
2019-04-22T07:29:46.985Z,52.5185
2019-04-22T07:30:54.530Z,52.5826
2019-04-22T07:32:04.729Z,52.5231
2019-04-22T07:33:31.299Z,52.8969
2019-04-22T07:34:19.736Z,52.9397
2019-04-22T07:35:28.862Z,52.6284
2019-04-22T07:36:45.676Z,53.0861
2019-04-22T07:38:43.913Z,52.6040
2019-04-22T07:39:50.190Z,52.3079
2019-04-22T07:40:59.312Z,52.1431
2019-04-22T07:42:16.755Z,52.3156
2019-04-22T07:43:29.185Z,52.8466
2019-04-22T07:44:31.192Z,52.7520
2019-04-22T07:45:36.069Z,52.7001
2019-04-22T07:46:54.257Z,52.3247
2019-04-22T07:48:04.008Z,51.6854
2019-04-22T07:49:02.984Z,52.0226
2019-04-22T07:50:22.830Z,52.2011
2019-04-22T07:52:22.533Z,52.3537
2019-04-22T07:53:28.886Z,52.3430
2019-04-22T07:54:41.640Z,52.5811
2019-04-22T07:55:47.526Z,52.2423
2019-04-22T07:57:02.670Z,52.2484
2019-04-22T07:58:07.373Z,52.1736
2019-04-22T07:59:15.598Z,52.3888
2019-04-22T08:00:22.699Z,52.3064
2019-04-22T08:01:26.690Z,52.3308
2019-04-22T08:02:37.893Z,52.2698
2019-04-22T08:04:15.225Z,51.8532
2019-04-22T08:06:11.684Z,50.7774
2019-04-22T08:07:14.362Z,50.7958
2019-04-22T08:08:21.219Z,50.5409
2019-04-22T08:09:34.073Z,50.8339
2019-04-22T08:10:29.800Z,50.7012
2019-04-22T08:11:55.320Z,50.8888
2019-04-22T08:13:51.256Z,49.7658
2019-04-22T08:15:05.657Z,49.9809
2019-04-22T08:16:10.562Z,50.1152
2019-04-22T08:17:45.149Z,50.1411
2019-04-22T08:18:37.429Z,49.9596
2019-04-22T08:19:53.942Z,49.8955
2019-04-22T08:20:58.698Z,49.6971
2019-04-22T08:21:50.722Z,50.0496
2019-04-22T08:23:04.839Z,49.9901
2019-04-22T08:24:13.073Z,49.2958
2019-04-22T08:25:20.386Z,49.3370
2019-04-22T08:26:28.393Z,49.3370
2019-04-22T08:27:33.456Z,49.1585
2019-04-22T08:28:46.505Z,49.2546
2019-04-22T08:29:58.596Z,49.0013
2019-04-22T08:30:59.673Z,47.9545
2019-04-22T08:32:05.085Z,47.5151
2019-04-22T08:33:15.883Z,47.3960
2019-04-22T08:35:49.083Z,46.4698
2019-04-22T08:37:51.170Z,46.1357
2019-04-22T08:39:00.674Z,45.8152
2019-04-22T08:40:09.509Z,45.9525
2019-04-22T08:41:16.453Z,45.6931
2019-04-22T08:42:27.192Z,45.1942
2019-04-22T08:43:36.457Z,45.2567
2019-04-22T08:44:52.038Z,45.0751
2019-04-22T08:45:56.939Z,44.9012
2019-04-22T08:46:56.131Z,44.6403
2019-04-22T08:47:59.171Z,43.6500
2019-04-22T08:49:05.637Z,43.7110
2019-04-22T08:50:14.100Z,43.8376
2019-04-22T08:52:54.883Z,43.2792
2019-04-22T08:53:45.172Z,43.4714
2019-04-22T08:54:50.287Z,43.5676
2019-04-22T08:56:10.902Z,43.7690
2019-04-22T08:57:06.662Z,43.6698
2019-04-22T08:58:20.280Z,43.5813
2019-04-22T08:59:34.286Z,43.5187
2019-04-22T09:00:34.194Z,42.9786
2019-04-22T09:01:36.079Z,43.0640
2019-04-22T09:02:52.192Z,43.2471
2019-04-22T09:03:52.371Z,43.3310
2019-04-22T09:04:53.773Z,43.0610
2019-04-22T09:06:15.266Z,43.5355
2019-04-22T09:07:20.931Z,42.6062
2019-04-22T09:08:26.286Z,42.8168
2019-04-22T09:09:36.277Z,43.2563
2019-04-22T09:10:54.137Z,42.1500
2019-04-22T09:11:46.978Z,41.5213
2019-04-22T09:14:01.678Z,41.4542
2019-04-22T09:15:11.275Z,41.9577
2019-04-22T09:16:27.967Z,42.0905
2019-04-22T09:17:27.813Z,41.8051
2019-04-22T09:18:39.869Z,42.5116
2019-04-22T09:19:40.561Z,41.9150
2019-04-22T09:20:57.305Z,42.2004
2019-04-22T09:22:00.391Z,41.8387
2019-04-22T09:23:12.898Z,41.6358
2019-04-22T09:24:16.059Z,41.5595
2019-04-22T09:25:26.966Z,41.1322
2019-04-22T09:26:41.896Z,41.2696
2019-04-22T09:27:59.469Z,41.4801
2019-04-22T09:28:52.357Z,41.0742
2019-04-22T09:29:58.444Z,41.2284
2019-04-22T09:31:06.629Z,41.6190
2019-04-22T09:32:15.343Z,40.8637
2019-04-22T09:33:20.383Z,41.3031
2019-04-22T09:34:32.007Z,40.9216
2019-04-22T09:35:41.418Z,40.6714
2019-04-22T09:36:42.049Z,40.1434
2019-04-22T09:38:00.250Z,40.6302
2019-04-22T09:39:02.894Z,40.8759
2019-04-22T09:40:13.073Z,40.9720
2019-04-22T09:41:15.212Z,40.6287
2019-04-22T09:42:24.636Z,40.7889
2019-04-22T09:43:32.238Z,40.2457
2019-04-22T09:44:41.975Z,40.0839
2019-04-22T09:45:47.929Z,40.3128
2019-04-22T09:46:57.932Z,40.6241
2019-04-22T09:48:09.860Z,40.7248
2019-04-22T09:49:12.090Z,40.9812
2019-04-22T09:50:24.190Z,40.8484
2019-04-22T09:51:25.342Z,40.2182
2019-04-22T09:52:37.531Z,39.6628
2019-04-22T09:53:47.196Z,40.4974
2019-04-22T09:55:57.221Z,41.0910
2019-04-22T09:57:12.053Z,40.3769
2019-04-22T09:58:21.281Z,40.4105
2019-04-22T09:59:20.669Z,40.2258
2019-04-22T10:00:37.646Z,40.6424
2019-04-22T10:02:59.264Z,41.6052
2019-04-22T10:05:08.667Z,41.7502
2019-04-22T10:06:22.854Z,42.2217
2019-04-22T10:07:20.967Z,42.1897
2019-04-22T10:08:32.010Z,41.7594
2019-04-22T10:10:01.482Z,40.0992
2019-04-22T10:10:51.625Z,40.2075
2019-04-22T10:11:50.916Z,41.0239
2019-04-22T10:13:06.401Z,40.9506
2019-04-22T10:15:14.981Z,40.8820
2019-04-22T10:17:32.212Z,40.5920
2019-04-22T10:18:43.619Z,40.5920
2019-04-22T10:19:48.011Z,40.4685
2019-04-22T10:21:02.955Z,39.5209
2019-04-22T10:22:08.558Z,38.9364
2019-04-22T10:23:17.580Z,38.9136
2019-04-22T10:24:21.586Z,38.7198
2019-04-22T10:25:29.856Z,38.2437
2019-04-22T10:26:39.158Z,37.4380
2019-04-22T10:27:51.316Z,37.9660
2019-04-22T10:29:00.781Z,37.7310
2019-04-22T10:30:00.258Z,38.0880
2019-04-22T10:31:09.926Z,38.1750
2019-04-22T10:32:14.841Z,36.7407
2019-04-22T10:33:24.018Z,37.5113
2019-04-22T10:34:16.794Z,37.4273
2019-04-22T10:35:19.243Z,36.9604
2019-04-22T10:36:23.618Z,36.2325
2019-04-22T10:37:26.404Z,36.7010
2019-04-22T10:38:30.416Z,36.4401
2019-04-22T10:39:42.269Z,36.7178
2019-04-22T10:40:42.721Z,36.0967
2019-04-22T10:41:46.488Z,36.2005
2019-04-22T10:42:49.506Z,36.6232
2019-04-22T10:43:52.934Z,36.3394
2019-04-22T10:44:57.289Z,35.8312
2019-04-22T10:46:00.288Z,35.9869
2019-04-22T10:47:04.219Z,35.7763
2019-04-22T10:48:08.224Z,33.6278
2019-04-22T10:49:12.536Z,34.0444
2019-04-22T10:50:16.490Z,34.2641
2019-04-22T10:51:19.310Z,33.9727
2019-04-22T10:52:23.651Z,33.2540
2019-04-22T10:53:26.326Z,32.3934
2019-04-22T10:54:29.536Z,32.6909
2019-04-22T10:55:32.319Z,33.1212
2019-04-22T10:56:35.293Z,32.8908
2019-04-22T10:57:38.998Z,33.2082
2019-04-22T10:58:42.648Z,33.9864
2019-04-22T10:59:45.275Z,32.3003
2019-04-22T11:00:49.893Z,32.4880
2019-04-22T11:01:54.820Z,31.1971
2019-04-22T11:02:58.286Z,31.0094
2019-04-22T11:04:01.544Z,32.1370
2019-04-22T11:05:04.311Z,32.4147
2019-04-22T11:06:07.516Z,31.3619
2019-04-22T11:07:12.781Z,30.8446
2019-04-22T11:08:25.637Z,32.1035
2019-04-22T11:09:25.256Z,32.5856
2019-04-22T11:10:44.547Z,32.3293
2019-04-22T11:11:46.618Z,32.5444
2019-04-22T11:12:45.106Z,31.5648
2019-04-22T11:13:49.526Z,31.1482
2019-04-22T11:14:53.745Z,31.7342
2019-04-22T11:15:58.460Z,32.9152
2019-04-22T11:17:03.391Z,33.4768
2019-04-22T11:18:07.471Z,33.0419
2019-04-22T11:19:11.767Z,33.0846
2019-04-22T11:20:15.584Z,33.8750
2019-04-22T11:21:19.810Z,33.7789
2019-04-22T11:22:28.525Z,33.7118
2019-04-22T11:23:32.396Z,34.7692
2019-04-22T11:24:36.857Z,34.8653
2019-04-22T11:25:41.602Z,35.0561
2019-04-22T11:26:45.287Z,35.8801
2019-04-22T11:27:49.403Z,35.4742
2019-04-22T11:28:53.802Z,35.9487
2019-04-22T11:29:57.477Z,36.0815
2019-04-22T11:31:00.808Z,36.2936
2019-04-22T11:32:04.400Z,36.5270
2019-04-22T11:33:08.578Z,36.9284
2019-04-22T11:34:11.281Z,36.9894
2019-04-22T11:35:14.316Z,37.3602
2019-04-22T11:36:17.772Z,37.1084
2019-04-22T11:37:22.424Z,37.6669
2019-04-22T11:38:26.797Z,37.5341
2019-04-22T11:39:32.799Z,37.2137
2019-04-22T11:40:42.193Z,37.4502
2019-04-22T11:41:46.509Z,37.2549
2019-04-22T11:42:50.279Z,37.4243
2019-04-22T11:43:53.629Z,36.3806
2019-04-22T11:44:57.139Z,35.9075
2019-04-22T11:46:00.306Z,35.8938
2019-04-22T11:47:03.488Z,36.1608
2019-04-22T11:48:06.290Z,36.0678
2019-04-22T11:49:09.871Z,35.8297
2019-04-22T11:50:13.331Z,35.7107
2019-04-22T11:51:16.293Z,35.8587
2019-04-22T11:52:20.504Z,36.0372
2019-04-22T11:53:24.730Z,35.5459
2019-04-22T11:54:28.643Z,34.6777
2019-04-22T11:55:32.600Z,34.9142
2019-04-22T11:56:36.921Z,34.4381
2019-04-22T11:57:41.369Z,34.1650
2019-04-22T11:58:44.584Z,34.6807
2019-04-22T11:59:46.973Z,34.8241
2019-04-22T12:00:51.954Z,35.1019
2019-04-22T12:01:57.004Z,35.1446
2019-04-22T12:03:00.851Z,34.4564
2019-04-22T12:04:04.365Z,35.2346
2019-04-22T12:05:07.950Z,35.9319
2019-04-22T12:06:11.336Z,35.5749
2019-04-22T12:07:15.087Z,35.4360
2019-04-22T12:08:18.305Z,35.3780
2019-04-22T12:09:21.577Z,35.4101
2019-04-22T12:10:34.465Z,35.1202
2019-04-22T12:11:34.493Z,34.1054
2019-04-22T12:12:37.295Z,34.4656
2019-04-22T12:13:40.322Z,35.0439
2019-04-22T12:14:43.344Z,35.3002
2019-04-22T12:15:46.755Z,34.4427
2019-04-22T12:16:50.364Z,35.2026
2019-04-22T12:17:53.356Z,35.9548
2019-04-22T12:18:58.532Z,35.6374
2019-04-22T12:20:05.599Z,34.3648
2019-04-22T12:21:10.968Z,34.9966
2019-04-22T12:22:15.351Z,35.7443
2019-04-22T12:23:19.024Z,35.7809
2019-04-22T12:24:23.509Z,35.5245
2019-04-22T12:25:34.800Z,34.8730
2019-04-22T12:26:35.291Z,35.1522
2019-04-22T12:27:38.988Z,35.4406
2019-04-22T12:28:42.286Z,34.6487
2019-04-22T12:29:45.368Z,35.2300
2019-04-22T12:30:49.317Z,34.3664
2019-04-22T12:31:53.521Z,34.7646
2019-04-22T12:32:58.134Z,33.6461
2019-04-22T12:34:01.503Z,33.1060
2019-04-22T12:35:05.267Z,33.9361
2019-04-22T12:36:08.593Z,34.6441
2019-04-22T12:37:17.421Z,34.1741
2019-04-22T12:38:20.228Z,33.2540
2019-04-22T12:39:23.339Z,33.8766
2019-04-22T12:40:37.421Z,34.2092
2019-04-22T12:41:34.310Z,34.8684
2019-04-22T12:42:37.644Z,34.4198
2019-04-22T12:43:41.010Z,34.4625
2019-04-22T12:44:45.837Z,34.2550
2019-04-22T12:45:50.381Z,34.7311
2019-04-22T12:46:54.504Z,35.1568
2019-04-22T12:47:57.907Z,35.4375
2019-04-22T12:49:00.378Z,34.7509
2019-04-22T12:50:12.700Z,34.6868
2019-04-22T12:51:11.301Z,34.2840
2019-04-22T12:52:24.341Z,34.4717
2019-04-22T12:53:25.694Z,34.8287
2019-04-22T12:54:31.113Z,34.3694
2019-04-22T12:55:34.452Z,34.9828
2019-04-22T12:56:37.613Z,34.8516
2019-04-22T12:57:40.843Z,34.2412
2019-04-22T12:58:45.585Z,34.5724
2019-04-22T12:59:49.832Z,35.0118
2019-04-22T13:00:54.569Z,34.6914
2019-04-22T13:01:58.577Z,34.8135
2019-04-22T13:03:01.357Z,35.0195
2019-04-22T13:04:09.409Z,35.3399
2019-04-22T13:05:12.493Z,35.2544
2019-04-22T13:06:15.279Z,35.1751
2019-04-22T13:07:19.775Z,35.9579
2019-04-22T13:08:23.541Z,35.9365
2019-04-22T13:09:27.503Z,35.8938
2019-04-22T13:10:42.980Z,35.7900
2019-04-22T13:11:38.863Z,35.5108
2019-04-22T13:12:44.485Z,34.8455
2019-04-22T13:13:47.324Z,35.2361
2019-04-22T13:14:50.717Z,35.4498
2019-04-22T13:15:54.959Z,35.6603
2019-04-22T13:16:59.679Z,35.6573
2019-04-22T13:18:12.862Z,35.6023
2019-04-22T13:19:12.942Z,35.8663
2019-04-22T13:20:20.148Z,35.2529
2019-04-22T13:21:24.656Z,35.4604
2019-04-22T13:22:27.268Z,35.5642
2019-04-22T13:23:31.673Z,35.7488
2019-04-22T13:24:36.169Z,35.3506
2019-04-22T13:25:40.821Z,34.7555
2019-04-22T13:26:45.264Z,34.2641
2019-04-22T13:27:49.097Z,34.0871
2019-04-22T13:28:52.298Z,34.8516
2019-04-22T13:29:55.302Z,34.3603
2019-04-22T13:31:01.416Z,34.1741
2019-04-22T13:32:06.735Z,33.8704
2019-04-22T13:33:10.752Z,34.0688
2019-04-22T13:34:21.577Z,33.8109
2019-04-22T13:35:24.112Z,34.2428
2019-04-22T13:36:30.286Z,34.2641
2019-04-22T13:37:35.030Z,34.4518
2019-04-22T13:38:38.733Z,34.4152
2019-04-22T13:39:41.356Z,33.9910
2019-04-22T13:40:57.812Z,33.5149
2019-04-22T13:41:59.586Z,34.3481
2019-04-22T13:43:00.759Z,33.8384
2019-04-22T13:44:04.978Z,33.3410
2019-04-22T13:45:09.537Z,34.0734
2019-04-22T13:46:12.501Z,33.8018
2019-04-22T13:47:32.628Z,33.5912
2019-04-22T13:48:38.794Z,33.1655
2019-04-22T13:52:20.696Z,33.8170
2019-04-22T13:53:42.608Z,33.6614
2019-04-22T13:54:51.075Z,33.2296
2019-04-22T13:55:41.464Z,33.7163
2019-04-22T13:56:43.150Z,33.4463
2019-04-22T13:57:47.117Z,33.4554
2019-04-22T13:58:52.453Z,33.0114
2019-04-22T13:59:52.363Z,33.5012
2019-04-22T14:00:56.444Z,33.4829
2019-04-22T14:02:00.740Z,33.3913
2019-04-22T14:03:04.612Z,32.6268
2019-04-22T14:04:07.319Z,32.8466
2019-04-22T14:05:10.613Z,33.2982
2019-04-22T14:06:13.300Z,33.7057
2019-04-22T14:07:19.005Z,33.0007
2019-04-22T14:08:23.032Z,33.6797
2019-04-22T14:09:26.469Z,33.1945
2019-04-22T14:10:30.227Z,32.0211
2019-04-22T14:11:43.320Z,32.0394
2019-04-22T14:12:42.542Z,32.2103
2019-04-22T14:13:46.150Z,32.0134
2019-04-22T14:14:50.655Z,32.3644
2019-04-22T14:15:55.344Z,32.0729
2019-04-22T14:16:58.783Z,32.0272
2019-04-22T14:18:03.074Z,32.2103
2019-04-22T14:19:07.723Z,32.4804
2019-04-22T14:20:11.294Z,32.9320
2019-04-22T14:21:14.926Z,32.9000
2019-04-22T14:22:18.329Z,32.6940
2019-04-22T14:23:22.561Z,32.5017
2019-04-22T14:24:26.009Z,32.7596
2019-04-22T14:25:30.481Z,32.9381
2019-04-22T14:26:44.254Z,33.3043
2019-04-22T14:27:52.442Z,32.9931
2019-04-22T14:28:50.328Z,33.3135
2019-04-22T14:29:53.597Z,33.8308
2019-04-22T14:30:56.925Z,34.1360
2019-04-22T14:32:08.623Z,33.6736
2019-04-22T14:33:09.766Z,34.2733
2019-04-22T14:34:13.836Z,34.4900
2019-04-22T14:35:18.542Z,34.1329
2019-04-22T14:36:23.401Z,34.1726
2019-04-22T14:37:27.728Z,34.4701
2019-04-22T14:38:32.396Z,34.8058
2019-04-22T14:39:35.772Z,35.3078
2019-04-22T14:40:41.433Z,35.4223
2019-04-22T14:43:17.591Z,35.9457
2019-04-22T14:44:12.633Z,35.5367
2019-04-22T14:45:05.180Z,35.1537
2019-04-22T14:45:42.298Z,34.8516
2019-04-22T14:46:51.157Z,33.7163
2019-04-22T14:47:58.197Z,33.8567
2019-04-22T14:48:57.330Z,34.3786
2019-04-22T14:50:05.025Z,34.4259
2019-04-22T14:51:07.719Z,34.6914
2019-04-22T14:52:21.573Z,34.8684
2019-04-22T14:53:27.567Z,35.2346
2019-04-22T14:54:31.298Z,34.8196
2019-04-22T14:55:25.931Z,35.2407
2019-04-22T14:56:30.565Z,35.3719
2019-04-22T14:57:34.290Z,34.6593
2019-04-22T14:58:40.563Z,34.8150
2019-04-22T14:59:44.302Z,35.0561
2019-04-22T15:00:49.089Z,34.9783
2019-04-22T15:01:53.928Z,34.5541
2019-04-22T15:02:57.593Z,34.8379
2019-04-22T15:04:02.822Z,34.9615
2019-04-22T15:05:06.315Z,34.6868
2019-04-22T15:06:10.526Z,34.5678
2019-04-22T15:07:14.846Z,34.9325
2019-04-22T15:08:19.160Z,35.2544
2019-04-22T15:09:24.001Z,35.0439
2019-04-22T15:10:28.220Z,34.8867
2019-04-22T15:11:43.695Z,35.1980
2019-04-22T15:12:46.127Z,35.3674